Durango Ski Resort, Colorado Weather observations

Data are for observation ending at time listed.
 Day   Time    Ave.   Ave.  Ave.  Vector   Max.    Total    Solar   Ave.  
  of    of     Air    Rel.  Wind   Wind    Wind   Precip.   Rad.    Soil  
Year   Day     Temp.  Hum.  Speed  Dir.    Gust                     Temp. 
2015   (PST)    F      %     mph   deg.    mph      in.     W/m2     F   
------------------------------------------------------------------------------
  63   12:10   17.0    56    4.4   336      8.2    99999.00   99999    99999.0
  63   12:20   16.9    59    6.3   339     13.3    99999.00   99999    99999.0
  63   12:30   16.8    58    6.8   359     12.1    99999.00   99999    99999.0
  63   12:40   16.2    57    7.7   334     19.3    99999.00   99999    99999.0
  63   12:50   16.5    60    6.6     2     11.6    99999.00   99999    99999.0
  63   13:00   16.0    58    6.8   357     14.2    99999.00   99999    99999.0
  63   13:10   15.5    54    8.1   359     15.0    99999.00   99999    99999.0
  63   13:20   15.5    55    7.1     2     15.9    99999.00   99999    99999.0
  63   13:30   16.0    53    7.0   353     13.3    99999.00   99999    99999.0
  63   13:40   15.8    51    6.9   348     17.6    99999.00   99999    99999.0
  63   13:50   17.1    53    5.4   344      9.5    99999.00   99999    99999.0
  63   14:00   16.4    56    8.1   353     13.8    99999.00   99999    99999.0
  63   14:10   15.7    58    8.9     0     16.8    99999.00   99999    99999.0
  63   14:20   15.9    58   10.5   334     18.5    99999.00   99999    99999.0
  63   14:30   15.6    57   13.2   337     23.6    99999.00   99999    99999.0
  63   14:40   15.6    57   10.1   341     19.7    99999.00   99999    99999.0
  63   14:50   14.9    59   12.8   336     19.7    99999.00   99999    99999.0
  63   15:00   14.3    58   13.2   345     27.8    99999.00   99999    99999.0
  63   15:10   14.0    55   12.5   349     21.4    99999.00   99999    99999.0
  63   15:20   13.8    58   11.0   352     21.4    99999.00   99999    99999.0
  63   15:30   12.8    58   13.3   352     30.8    99999.00   99999    99999.0
  63   15:40   12.7    56   20.4   336     37.7    99999.00   99999    99999.0
  63   15:50   12.5    60   15.2   337     33.0    99999.00   99999    99999.0
  63   16:00   12.1    57   20.5   346     38.5    99999.00   99999    99999.0
  63   16:10   11.9    58   17.0   338     38.5    99999.00   99999    99999.0
  63   16:20   11.9    58   12.9   346     25.3    99999.00   99999    99999.0
  63   16:30   11.8    57   14.2   336     31.7    99999.00   99999    99999.0
  63   16:40   11.2    57   15.8   348     35.1    99999.00   99999    99999.0
  63   16:50   10.9    56   16.4   356     32.1    99999.00   99999    99999.0
  63   17:00   10.9    58   15.5   344     25.7    99999.00   99999    99999.0
  63   17:10   10.7    59   22.1   339     41.5    99999.00   99999    99999.0
  63   17:20   10.3    61   19.9   336     43.2    99999.00   99999    99999.0
  63   17:30   10.1    60   16.6   342     34.2    99999.00   99999    99999.0
  63   17:40    9.9    59   16.4   336     44.5    99999.00   99999    99999.0
  63   17:50    9.7    57   18.0   341     36.8    99999.00   99999    99999.0
  63   18:00    9.4    57   18.6   335     40.2    99999.00   99999    99999.0
  63   18:10    8.8    59   15.8   338     36.0    99999.00   99999    99999.0
  63   18:20    8.5    58   17.7   341     40.6    99999.00   99999    99999.0
  63   18:30    8.1    59   16.5   337     33.0    99999.00   99999    99999.0
  63   18:40    7.9    60   18.2   335     32.1    99999.00   99999    99999.0
  63   18:50    7.6    62   17.4   337     28.7    99999.00   99999    99999.0
  63   19:00    7.5    60   16.4   336     24.4    99999.00   99999    99999.0
  63   19:10    7.4    61   17.9   336     29.1    99999.00   99999    99999.0
  63   19:20    7.9    56   18.5   343     30.4    99999.00   99999    99999.0
  63   19:30    7.3    61   16.0   339     30.0    99999.00   99999    99999.0
  63   19:40    7.6    57   15.1   344     36.4    99999.00   99999    99999.0
  63   19:50    8.0    55    8.7   348     18.0    99999.00   99999    99999.0
  63   20:00    7.9    55    7.7   341     22.3    99999.00   99999    99999.0
  63   20:10    7.6    59    6.7   339     20.6    99999.00   99999    99999.0
  63   20:20    7.2    62    3.9   354     12.5    99999.00   99999    99999.0
  63   20:30    6.8    65    8.3   337     15.5    99999.00   99999    99999.0
  63   20:40    6.5    66    9.3   335     19.7    99999.00   99999    99999.0
  63   20:50    6.5    64    7.9   351     15.9    99999.00   99999    99999.0
  63   21:00    6.5    64    9.8     3     16.3    99999.00   99999    99999.0
  63   21:10    6.6    62   10.1     8     15.9    99999.00   99999    99999.0
  63   21:20    7.1    60   10.7     8     17.6    99999.00   99999    99999.0
  63   21:30    6.6    61    7.3     9     16.3    99999.00   99999    99999.0
  63   21:40    6.3    61    5.0    10     12.1    99999.00   99999    99999.0
  63   21:50    6.5    58    4.5    10     13.3    99999.00   99999    99999.0
  63   22:00    6.4    58    3.7     2     11.6    99999.00   99999    99999.0
  63   22:10    6.7    56    4.6     9     10.3    99999.00   99999    99999.0
  63   22:20    6.7    55    2.0    10      7.8    99999.00   99999    99999.0
  63   22:30    6.4    56    2.3    11      7.8    99999.00   99999    99999.0
  63   22:40    6.7    52    3.2    18     11.2    99999.00   99999    99999.0
  63   22:50    6.5    52    1.8    18      7.8    99999.00   99999    99999.0
  63   23:00    6.7    52    0.1   360      2.7    99999.00   99999    99999.0
  63   23:10    6.9    51    0.3    21      4.4    99999.00   99999    99999.0
  63   23:20    6.9    48    1.2    80      7.8    99999.00   99999    99999.0
  63   23:30    7.1    46    4.2    84     10.8    99999.00   99999    99999.0
  63   23:40    7.1    47    3.8    59      6.1    99999.00   99999    99999.0
  63   23:50    7.2    46    2.7    39      8.6    99999.00   99999    99999.0
  64    0:00    7.5    42    4.3    49     12.5    99999.00   99999    99999.0
  64    0:10    7.4    42    3.8    42      8.2    99999.00   99999    99999.0
  64    0:20    7.8    37    5.2    53     10.8    99999.00   99999    99999.0
  64    0:30    8.1    36    2.9    50      6.1    99999.00   99999    99999.0
  64    0:40    8.0    34    3.6    44      7.8    99999.00   99999    99999.0
  64    0:50    7.9    34    3.6    51      6.9    99999.00   99999    99999.0
  64    1:00    7.8    34    3.0    41      5.7    99999.00   99999    99999.0
  64    1:10    8.1    31    3.0    49      5.2    99999.00   99999    99999.0
  64    1:20    8.7    28    2.7    58      4.4    99999.00   99999    99999.0
  64    1:30    9.4    25    3.0    60      6.1    99999.00   99999    99999.0
  64    1:40    9.3    25    2.4    58      6.5    99999.00   99999    99999.0
  64    1:50    9.1    26    1.6    36      6.5    99999.00   99999    99999.0
  64    2:00    9.5    26    3.1    31      5.7    99999.00   99999    99999.0
  64    2:10   11.0    22    4.4    16      6.1    99999.00   99999    99999.0
  64    2:20   11.2    21    2.2    14      6.1    99999.00   99999    99999.0
  64    2:30   11.4    19    1.0    14      3.5    99999.00   99999    99999.0
  64    2:40   12.1    15    0.5    14      3.9    99999.00   99999    99999.0
  64    2:50   12.9    14    0.0     0      0.0    99999.00   99999    99999.0
  64    3:00   13.7    13    0.0     0      0.0    99999.00   99999    99999.0
  64    3:10   13.8    13    0.0     0      0.0    99999.00   99999    99999.0
  64    3:20   13.1    14    1.5    14      4.4    99999.00   99999    99999.0
  64    3:30   12.5    16    4.5    10      6.5    99999.00   99999    99999.0
  64    3:40   12.5    15    5.0     8      6.5    99999.00   99999    99999.0
  64    3:50   13.2    14    4.5     1      5.7    99999.00   99999    99999.0
  64    4:00   13.6    13    4.5   357      6.5    99999.00   99999    99999.0
  64    4:10   13.5    13    4.7   350      5.7    99999.00   99999    99999.0
  64    4:20   14.2    12    4.6   350      6.1    99999.00   99999    99999.0
  64    4:30   14.6    13    3.8   341      6.5    99999.00   99999    99999.0
  64    4:40   14.5    14    5.3   340      7.8    99999.00   99999    99999.0
  64    4:50   15.1    14    7.0   324     10.3    99999.00   99999    99999.0
  64    5:00   15.2    14    7.7   320      9.9    99999.00   99999    99999.0
  64    5:10   15.4    15    7.6   318     10.3    99999.00   99999    99999.0
  64    5:20   15.5    15    8.3   316     10.3    99999.00   99999    99999.0
  64    5:30   15.6    16    8.1   316     11.2    99999.00   99999    99999.0
  64    5:40   16.0    16    7.2   317     11.2    99999.00   99999    99999.0
  64    5:50   16.2    16    6.3   304      9.1    99999.00   99999    99999.0
  64    6:00   16.2    16    5.2   304      6.9    99999.00   99999    99999.0
  64    6:10   16.3    16    5.6   304      8.6    99999.00   99999    99999.0
  64    6:20   16.1    16    7.4   305     11.2    99999.00   99999    99999.0
  64    6:30   16.4    16    8.9   315     12.9    99999.00   99999    99999.0
  64    6:40   16.8    15    7.7   316     10.3    99999.00   99999    99999.0
  64    6:50   16.8    15    7.5   311     10.3    99999.00   99999    99999.0
  64    7:00   16.9    16    8.4   314     12.1    99999.00   99999    99999.0
  64    7:10   17.3    15    8.6   318     10.8    99999.00   99999    99999.0
  64    7:20   17.5    15    9.0   317     11.2    99999.00   99999    99999.0
  64    7:30   17.6    15    9.6   319     12.9    99999.00   99999    99999.0
  64    7:40   17.8    15   10.7   324     15.9    99999.00   99999    99999.0
  64    7:50   17.9    15   12.2   323     15.5    99999.00   99999    99999.0
  64    8:00   17.9    15   12.7   324     16.3    99999.00   99999    99999.0
  64    8:10   17.9    16   13.3   327     20.6    99999.00   99999    99999.0
  64    8:20   17.9    16   12.8   328     17.2    99999.00   99999    99999.0
  64    8:30   18.2    19   11.1   336     18.5    99999.00   99999    99999.0
  64    8:40   18.4    22    9.9   338     15.5    99999.00   99999    99999.0
  64    8:50   18.4    22   10.7   335     15.9    99999.00   99999    99999.0
  64    9:00   18.7    23   10.8   333     18.0    99999.00   99999    99999.0
  64    9:10   19.2    22   11.5   327     17.6    99999.00   99999    99999.0
  64    9:20   19.7    22   11.4   327     18.5    99999.00   99999    99999.0
  64    9:30   20.3    22    9.7   330     16.3    99999.00   99999    99999.0
  64    9:40   20.6    23   10.8   327     17.2    99999.00   99999    99999.0
  64    9:50   21.1    24    9.6   326     15.9    99999.00   99999    99999.0
  64   10:00   21.5    25    9.8   331     14.2    99999.00   99999    99999.0
  64   10:10   21.9    25    9.7   328     15.0    99999.00   99999    99999.0
  64   10:20   22.3    26    9.3   327     14.6    99999.00   99999    99999.0
  64   10:30   22.8    26    9.2   327     13.8    99999.00   99999    99999.0
  64   10:40   23.3    26    9.3   333     13.8    99999.00   99999    99999.0
  64   10:50   23.3    27   10.7   325     15.5    99999.00   99999    99999.0
  64   11:00   23.8    27    9.1   336     15.5    99999.00   99999    99999.0
  64   11:10   23.8    27   11.5   332     18.9    99999.00   99999    99999.0
  64   11:20   24.0    26   10.1   342     15.5    99999.00   99999    99999.0
  64   11:30   24.2    26    9.7   341     20.6    99999.00   99999    99999.0
  64   11:40   24.6    28   11.2   330     18.9    99999.00   99999    99999.0
  64   11:50   25.0    28   11.9   329     22.7    99999.00   99999    99999.0
  64   12:00   25.3    27    9.5   343     20.2    99999.00   99999    99999.0

Return to Durango Ski Resort, Colorado graphs page.


Western Regional Climate Center,wrcc@dri.edu